Time;durP1;ratioP1;P1;durP2;ratioP2;P2;SDS_P1;SDS_P2;PMS_P1;PMS_P2;Temp;Humidity;BMP_temperature;BMP_pressure;BME280_temperature;BME280_humidity;BME280_pressure;Samples;Min_cycle;Max_cycle;Signal;HPM_P1;HPM_P2
2022/04/04 00:00:54;;;;;;;14.93;6.53;;;;;;;1.57;83.79;101836.28;5001584;28;20143;-62
2022/04/04 00:03:20;;;;;;;12.07;5.80;;;;;;;1.53;83.99;101832.81;4983572;28;20189;-62
2022/04/04 00:05:47;;;;;;;15.40;7.03;;;;;;;1.57;83.97;101833.66;5001842;28;20069;-63
2022/04/04 00:08:12;;;;;;;14.75;6.40;;;;;;;1.54;83.79;101831.91;5001784;28;20434;-62
2022/04/04 00:10:38;;;;;;;12.48;6.00;;;;;;;1.58;83.39;101820.47;4999912;28;20069;-62
2022/04/04 00:13:03;;;;;;;9.13;5.40;;;;;;;1.58;83.44;101823.13;5001417;28;20084;-63
2022/04/04 00:15:29;;;;;;;14.00;7.25;;;;;;;1.66;82.98;101813.41;5001585;28;20536;-63
2022/04/04 00:17:57;;;;;;;10.23;5.78;;;;;;;1.56;83.46;101814.38;5001561;28;20697;-62
2022/04/04 00:20:23;;;;;;;15.75;6.40;;;;;;;1.52;83.76;101807.41;4981517;28;20034;-62
2022/04/04 00:22:49;;;;;;;11.70;5.97;;;;;;;1.52;83.37;101796.91;4981658;28;20133;-63
2022/04/04 00:25:14;;;;;;;11.20;5.57;;;;;;;1.46;82.91;101796.97;4981330;28;20871;-62
2022/04/04 00:27:40;;;;;;;14.63;5.72;;;;;;;1.32;83.28;101789.22;4981498;28;20042;-62
2022/04/04 00:30:06;;;;;;;10.23;5.03;;;;;;;1.45;83.42;101788.19;4981911;28;20043;-62
2022/04/04 00:32:31;;;;;;;11.25;5.45;;;;;;;1.46;83.44;101783.84;4981761;28;20519;-62
2022/04/04 00:34:57;;;;;;;10.93;6.38;;;;;;;1.35;83.85;101789.16;4964225;28;20042;-62
2022/04/04 00:37:23;;;;;;;11.38;5.07;;;;;;;1.32;83.57;101777.84;4980268;28;20072;-62
2022/04/04 00:39:49;;;;;;;13.35;5.53;;;;;;;1.35;83.72;101773.41;4981614;28;20137;-63
2022/04/04 00:42:15;;;;;;;10.55;6.25;;;;;;;1.42;82.99;101780.34;4964325;28;20052;-62
2022/04/04 00:44:41;;;;;;;10.25;5.85;;;;;;;1.36;82.90;101769.06;4979605;28;20165;-62
2022/04/04 00:47:07;;;;;;;13.63;5.88;;;;;;;1.29;83.67;101770.84;4981487;28;20576;-62
2022/04/04 00:49:32;;;;;;;8.55;5.00;;;;;;;1.25;83.13;101764.75;4981704;28;20072;-62
2022/04/04 00:51:58;;;;;;;12.38;6.35;;;;;;;1.29;83.02;101755.94;4987492;28;20050;-62
2022/04/04 00:54:23;;;;;;;10.80;5.85;;;;;;;1.33;83.52;101758.56;5000825;28;20061;-62
2022/04/04 00:56:49;;;;;;;11.65;5.88;;;;;;;1.37;83.20;101760.28;5000445;28;20180;-62
2022/04/04 00:59:17;;;;;;;15.45;6.32;;;;;;;1.37;83.24;101752.41;5000365;28;20615;-62
2022/04/04 01:01:43;;;;;;;17.25;6.78;;;;;;;1.41;83.37;101748.84;5000941;28;20116;-62
2022/04/04 01:04:08;;;;;;;12.85;6.57;;;;;;;1.37;83.07;101740.13;4999103;28;20505;-63
2022/04/04 01:06:38;;;;;;;20.63;7.85;;;;;;;1.30;83.39;101743.69;5001135;28;20029;-62
2022/04/04 01:09:04;;;;;;;10.23;6.13;;;;;;;1.33;83.72;101740.16;4999095;28;20495;-63
2022/04/04 01:11:30;;;;;;;12.45;8.20;;;;;;;1.27;83.89;101734.09;5000739;28;20121;-62
2022/04/04 01:13:55;;;;;;;13.00;7.45;;;;;;;1.38;83.37;101725.22;4999953;28;20057;-62
2022/04/04 01:16:21;;;;;;;17.17;8.90;;;;;;;1.28;83.64;101724.44;5000943;28;20049;-63
2022/04/04 01:18:46;;;;;;;15.70;9.15;;;;;;;1.16;83.73;101719.34;5001790;28;20402;-62
2022/04/04 01:21:11;;;;;;;14.07;7.80;;;;;;;1.18;83.72;101717.56;5003105;28;20097;-63
2022/04/04 01:23:42;;;;;;;17.20;8.80;;;;;;;1.24;83.80;101712.22;5004363;28;20065;-63
2022/04/04 01:26:09;;;;;;;17.77;8.27;;;;;;;1.20;83.68;101707.88;5004346;28;20034;-62
2022/04/04 01:28:34;;;;;;;18.98;8.57;;;;;;;1.23;83.54;101702.63;5004770;28;20042;-62
2022/04/04 01:31:00;;;;;;;16.58;8.07;;;;;;;1.23;83.94;101694.72;5003529;28;20789;-63
2022/04/04 01:33:26;;;;;;;16.75;8.32;;;;;;;1.25;83.09;101687.69;5003750;28;20799;-62
2022/04/04 01:35:52;;;;;;;16.88;8.38;;;;;;;1.25;82.83;101678.06;4985285;28;20478;-62
2022/04/04 01:38:18;;;;;;;15.52;8.52;;;;;;;1.44;81.85;101681.34;4985069;28;20047;-62
2022/04/04 01:40:43;;;;;;;15.40;8.60;;;;;;;1.47;80.98;101669.94;5003070;28;20034;-62
2022/04/04 01:43:09;;;;;;;16.42;7.45;;;;;;;1.44;81.27;101662.09;4985266;28;20057;-62
2022/04/04 01:48:18;;;;;;;12.77;8.73;;;;;;;1.46;80.70;101660.31;4984790;28;20038;-63
2022/04/04 01:50:44;;;;;;;14.98;7.70;;;;;;;1.33;80.99;101649.06;5002784;28;20037;-62
2022/04/04 01:53:27;;;;;;;12.52;7.30;;;;;;;1.35;81.17;101638.53;5002324;28;20044;-62
2022/04/04 01:56:03;;;;;;;17.48;8.43;;;;;;;1.38;81.04;101634.13;4987336;28;20133;-62
2022/04/04 01:58:29;;;;;;;20.27;8.60;;;;;;;1.24;81.45;101628.16;4984992;28;20045;-62
2022/04/04 02:00:56;;;;;;;15.10;8.38;;;;;;;1.10;82.51;101624.84;4986645;28;20048;-62
2022/04/04 02:03:23;;;;;;;17.52;8.50;;;;;;;1.05;82.64;101617.00;4982184;28;20147;-62
2022/04/04 02:05:49;;;;;;;15.88;8.93;;;;;;;1.04;82.46;101615.28;4963982;28;20063;-62
2022/04/04 02:08:14;;;;;;;16.42;9.63;;;;;;;1.04;82.99;101608.25;4982171;28;20818;-63
2022/04/04 02:10:40;;;;;;;18.65;10.48;;;;;;;1.17;82.43;101609.00;4981505;28;20141;-62
2022/04/04 02:13:05;;;;;;;21.45;10.52;;;;;;;1.13;81.94;101603.81;4978633;28;20061;-63
2022/04/04 02:15:31;;;;;;;20.80;10.82;;;;;;;1.10;81.42;101596.81;4980393;28;20074;-62
2022/04/04 02:17:57;;;;;;;15.63;10.40;;;;;;;1.31;80.87;101587.81;4963420;28;20129;-62
2022/04/04 02:20:22;;;;;;;23.85;11.18;;;;;;;1.24;81.18;101588.78;4980752;28;20518;-62
2022/04/04 02:22:49;;;;;;;18.90;10.73;;;;;;;1.19;81.51;101577.44;4979381;28;20081;-62
2022/04/04 02:25:14;;;;;;;20.80;12.02;;;;;;;1.21;81.16;101560.78;4981063;28;20100;-62
2022/04/04 02:27:40;;;;;;;24.42;12.15;;;;;;;1.22;81.27;101565.16;4982485;28;20810;-63
2022/04/04 02:30:06;;;;;;;19.50;12.05;;;;;;;1.20;80.75;101559.03;4983071;28;20545;-62
2022/04/04 02:32:32;;;;;;;19.73;12.20;;;;;;;1.19;80.97;101551.19;4983062;28;20099;-64
2022/04/04 02:34:57;;;;;;;21.73;11.82;;;;;;;1.25;80.79;101551.09;4983206;28;20508;-63
2022/04/04 02:37:23;;;;;;;22.50;12.73;;;;;;;1.33;80.29;101545.75;4983419;28;20042;-63
2022/04/04 02:39:48;;;;;;;19.75;12.43;;;;;;;1.40;80.28;101540.38;4983643;28;20486;-62
2022/04/04 02:42:14;;;;;;;22.08;12.73;;;;;;;1.37;80.35;101535.19;4981465;28;20046;-63
2022/04/04 02:44:39;;;;;;;21.58;12.85;;;;;;;1.39;79.91;101529.91;4992148;28;20064;-64
2022/04/04 02:47:04;;;;;;;19.65;13.13;;;;;;;1.36;80.07;101524.69;5003082;28;20041;-62
2022/04/04 02:49:30;;;;;;;24.48;14.82;;;;;;;1.40;79.89;101521.97;5003136;28;20150;-62
2022/04/04 02:51:57;;;;;;;26.85;13.88;;;;;;;1.42;79.72;101508.84;5003016;28;20092;-62
2022/04/04 02:54:23;;;;;;;25.77;13.63;;;;;;;1.42;79.46;101506.22;5003132;28;20522;-63
2022/04/04 02:56:49;;;;;;;28.08;14.38;;;;;;;1.50;79.30;101501.69;5002675;28;20145;-62
2022/04/04 02:59:14;;;;;;;25.42;14.38;;;;;;;1.61;78.03;101493.63;4999554;28;20045;-61
2022/04/04 03:01:41;;;;;;;22.60;13.93;;;;;;;1.62;78.40;101490.13;4982615;28;20046;-62
2022/04/04 03:04:07;;;;;;;23.52;14.00;;;;;;;1.70;77.68;101480.34;4981836;28;20491;-64
2022/04/04 03:06:34;;;;;;;20.17;13.32;;;;;;;1.86;76.59;101479.22;4982207;28;20049;-64
2022/04/04 03:09:00;;;;;;;24.38;13.20;;;;;;;1.88;76.29;101469.53;4981596;28;20050;-64
2022/04/04 03:11:25;;;;;;;20.52;12.30;;;;;;;1.97;75.82;101471.13;4963251;28;20386;-64
2022/04/04 03:13:51;;;;;;;23.38;12.85;;;;;;;2.03;75.50;101461.38;4980768;28;20065;-64
2022/04/04 03:16:16;;;;;;;20.67;12.27;;;;;;;2.02;76.30;101464.91;4981141;28;20168;-64
2022/04/04 03:18:41;;;;;;;25.33;14.15;;;;;;;2.05;76.14;101453.44;4981761;28;20733;-64
2022/04/04 03:21:07;;;;;;;20.33;11.40;;;;;;;2.07;75.92;101449.03;4985530;28;20066;-64
2022/04/04 03:23:33;;;;;;;19.60;11.65;;;;;;;2.12;76.17;101456.84;4980942;28;20112;-64
2022/04/04 03:25:59;;;;;;;21.05;12.27;;;;;;;2.12;75.84;101449.81;4997402;28;20046;-64
2022/04/04 03:28:25;;;;;;;23.38;11.60;;;;;;;2.17;75.99;101437.44;4982696;28;20034;-64
2022/04/04 03:30:51;;;;;;;21.75;12.63;;;;;;;2.20;75.48;101434.72;4982064;28;20455;-63
2022/04/04 03:33:17;;;;;;;24.20;13.00;;;;;;;2.14;75.63;101432.22;4981642;28;20038;-64
2022/04/04 03:35:42;;;;;;;16.92;11.07;;;;;;;2.19;75.67;101425.13;4985642;28;20038;-63
2022/04/04 03:38:10;;;;;;;18.58;11.02;;;;;;;2.05;77.11;101424.50;5001411;28;20108;-64
2022/04/04 03:40:37;;;;;;;19.40;12.52;;;;;;;1.94;77.91;101424.72;5000765;28;20034;-63
2022/04/04 03:43:03;;;;;;;23.65;13.43;;;;;;;1.88;77.82;101408.19;5000484;28;20038;-64
2022/04/04 03:45:29;;;;;;;19.23;11.57;;;;;;;1.88;78.27;101405.56;4998996;28;20108;-63
2022/04/04 03:47:56;;;;;;;20.55;12.70;;;;;;;1.88;78.27;101397.66;5000705;28;20048;-64
2022/04/04 03:50:22;;;;;;;20.30;12.30;;;;;;;1.85;78.28;101393.31;5000892;28;20658;-63
2022/04/04 03:52:50;;;;;;;25.88;13.25;;;;;;;1.77;78.19;101389.97;4982775;28;20045;-64
2022/04/04 03:55:16;;;;;;;23.25;13.73;;;;;;;1.74;78.49;101385.63;4998599;28;20042;-64
2022/04/04 03:57:42;;;;;;;25.50;13.70;;;;;;;1.69;78.67;101381.34;4982733;28;20108;-64
2022/04/04 04:00:08;;;;;;;28.30;13.55;;;;;;;1.67;78.06;101377.91;5000549;28;20485;-63
2022/04/04 04:02:34;;;;;;;21.63;12.88;;;;;;;1.64;78.55;101380.56;5000561;28;20037;-63
2022/04/04 04:05:00;;;;;;;25.30;12.75;;;;;;;1.65;78.30;101377.91;5000911;28;20050;-63
2022/04/04 04:07:26;;;;;;;23.70;13.00;;;;;;;1.57;78.92;101360.56;4999271;28;20050;-64
2022/04/04 04:09:52;;;;;;;23.63;12.07;;;;;;;1.60;78.55;101363.13;5000611;28;20136;-64
2022/04/04 04:12:20;;;;;;;20.13;12.73;;;;;;;1.56;79.52;101346.56;5000398;28;20057;-62
2022/04/04 04:14:46;;;;;;;23.83;12.75;;;;;;;1.58;79.32;101350.00;4982434;28;20152;-62
2022/04/04 04:17:13;;;;;;;20.50;12.45;;;;;;;1.67;78.45;101341.09;5000606;28;20046;-63
2022/04/04 04:22:24;;;;;;;19.63;11.43;;;;;;;1.74;78.06;101327.78;5000386;28;20046;-62
2022/04/04 04:24:50;;;;;;;17.73;11.40;;;;;;;1.83;77.29;101318.00;4999118;28;20028;-62
2022/04/04 04:27:16;;;;;;;23.13;12.32;;;;;;;1.80;78.35;101319.78;4999520;28;20038;-62
2022/04/04 04:29:44;;;;;;;19.42;10.80;;;;;;;1.84;78.00;101303.97;5000461;28;20939;-62
2022/04/04 04:32:09;;;;;;;19.38;10.90;;;;;;;1.89;77.90;101307.38;4983763;28;20057;-62
2022/04/04 04:34:35;;;;;;;17.85;10.65;;;;;;;1.86;78.58;101296.91;5000443;28;20045;-62
2022/04/04 04:37:02;;;;;;;19.13;11.65;;;;;;;1.87;78.33;101298.66;4999775;28;20513;-63
2022/04/04 04:39:27;;;;;;;19.80;10.68;;;;;;;1.95;78.02;101296.72;5000483;28;20727;-62
2022/04/04 04:41:55;;;;;;;19.80;9.80;;;;;;;2.19;76.39;101288.31;5000535;28;20041;-63
2022/04/04 04:44:20;;;;;;;19.05;9.55;;;;;;;2.81;73.06;101275.50;5000390;28;20419;-63
2022/04/04 04:46:45;;;;;;;16.73;8.98;;;;;;;3.13;70.84;101268.53;5000653;28;20113;-63
2022/04/04 04:49:11;;;;;;;18.65;8.75;;;;;;;3.14;70.94;101258.88;5000437;28;20068;-65
2022/04/04 04:51:36;;;;;;;18.17;9.13;;;;;;;3.17;71.42;101264.94;5000493;28;20038;-63
2022/04/04 04:54:03;;;;;;;18.17;8.65;;;;;;;3.27;71.16;101255.00;5000358;28;20037;-62
2022/04/04 04:56:29;;;;;;;18.70;8.85;;;;;;;3.40;69.62;101247.63;4981523;28;20042;-63
2022/04/04 04:58:55;;;;;;;20.15;9.50;;;;;;;3.35;70.63;101235.44;5000358;28;20478;-63
2022/04/04 05:01:20;;;;;;;15.38;8.43;;;;;;;3.38;70.68;101231.88;4982239;28;20623;-63
2022/04/04 05:03:46;;;;;;;16.58;8.48;;;;;;;3.35;71.08;101230.16;4982321;28;20678;-62
2022/04/04 05:06:11;;;;;;;13.70;9.00;;;;;;;3.25;71.61;101220.78;4999629;28;20030;-63
2022/04/04 05:08:37;;;;;;;16.92;8.68;;;;;;;3.32;71.31;101224.13;4999323;28;20410;-63
2022/04/04 05:11:02;;;;;;;13.10;8.50;;;;;;;3.29;71.50;101211.88;4998840;28;20033;-66
2022/04/04 05:13:27;;;;;;;16.98;9.70;;;;;;;3.27;71.88;101218.13;4999425;28;20383;-63
2022/04/04 05:15:54;;;;;;;18.45;9.05;;;;;;;3.33;71.32;101203.00;4982083;28;20045;-63
2022/04/04 05:18:20;;;;;;;14.93;8.63;;;;;;;3.27;72.25;101207.59;5000100;28;20084;-63
2022/04/04 05:20:46;;;;;;;17.85;8.68;;;;;;;3.30;71.40;101202.22;4998070;28;20453;-62
2022/04/04 05:23:12;;;;;;;16.85;9.15;;;;;;;3.27;71.87;101189.13;4999863;28;20042;-62
2022/04/04 05:25:37;;;;;;;18.83;10.02;;;;;;;3.24;71.96;101182.16;5000269;28;20049;-64
2022/04/04 05:28:03;;;;;;;16.40;9.93;;;;;;;3.24;72.28;101182.16;5000643;28;20105;-62
2022/04/04 05:30:28;;;;;;;20.08;10.55;;;;;;;3.29;71.96;101168.84;5000532;28;20053;-63
2022/04/04 05:32:54;;;;;;;19.77;9.38;;;;;;;3.31;72.70;101173.19;5000392;28;20038;-62
2022/04/04 05:35:19;;;;;;;22.58;10.57;;;;;;;3.33;72.53;101155.56;4982574;28;20037;-66
2022/04/04 05:37:45;;;;;;;17.73;10.38;;;;;;;3.34;72.44;101167.81;5000678;28;20033;-62
2022/04/04 05:40:11;;;;;;;21.92;9.95;;;;;;;3.33;72.40;101152.91;5000152;28;20447;-63
2022/04/04 05:42:36;;;;;;;24.73;10.43;;;;;;;3.35;72.69;101150.22;4997399;28;20073;-63
2022/04/04 05:45:02;;;;;;;18.85;10.43;;;;;;;3.33;73.22;101149.41;5000333;28;20060;-61
2022/04/04 05:47:28;;;;;;;20.27;10.23;;;;;;;3.34;73.44;101145.88;5000482;28;20033;-64
2022/04/04 05:49:53;;;;;;;20.00;9.98;;;;;;;3.37;72.54;101138.75;5000685;28;20049;-64
2022/04/04 05:52:23;;;;;;;21.90;10.80;;;;;;;3.36;72.89;101138.78;5001616;28;20053;-64
2022/04/04 05:54:54;;;;;;;23.13;10.93;;;;;;;3.42;73.05;101127.22;5002688;28;20631;-63
2022/04/04 05:57:28;;;;;;;18.80;9.93;;;;;;;3.43;72.45;101121.88;5001457;28;20044;-61
2022/04/04 05:59:54;;;;;;;17.63;10.27;;;;;;;3.41;72.92;101117.56;4979371;28;20046;-65
2022/04/04 06:02:20;;;;;;;18.27;10.75;;;;;;;3.40;74.20;101115.84;4984150;28;20076;-62
2022/04/04 06:04:46;;;;;;;19.17;10.07;;;;;;;3.41;73.47;101118.41;4999155;28;20034;-62
2022/04/04 06:07:11;;;;;;;25.55;11.38;;;;;;;3.46;73.58;101110.38;4984506;28;20170;-61
2022/04/04 06:09:36;;;;;;;23.80;10.90;;;;;;;3.50;72.63;101104.97;5004834;28;20045;-62
2022/04/04 06:12:03;;;;;;;18.95;10.82;;;;;;;3.54;72.57;101105.75;4986930;28;20053;-61
2022/04/04 06:14:28;;;;;;;19.23;10.45;;;;;;;3.57;72.74;101100.41;5005999;28;20045;-61
2022/04/04 06:16:54;;;;;;;18.35;9.73;;;;;;;3.60;72.57;101095.00;5003291;28;20123;-63
2022/04/04 06:19:20;;;;;;;19.70;10.68;;;;;;;3.67;72.05;101095.72;5002743;28;20111;-65
2022/04/04 06:21:45;;;;;;;20.33;10.80;;;;;;;3.69;72.71;101092.09;4985308;28;20478;-64
2022/04/04 06:24:10;;;;;;;19.33;10.60;;;;;;;3.71;72.51;101087.63;4985261;28;20046;-64
2022/04/04 06:26:36;;;;;;;20.35;10.02;;;;;;;3.76;71.83;101077.78;4986110;28;20539;-65
2022/04/04 06:29:02;;;;;;;21.60;11.18;;;;;;;3.83;71.34;101081.13;5001149;28;20042;-65
2022/04/04 06:31:27;;;;;;;17.83;10.63;;;;;;;3.88;72.58;101081.84;5017243;23;20025;-65
2022/04/04 06:33:53;;;;;;;18.27;9.95;;;;;;;3.95;71.41;101078.09;4981630;28;20043;-65
2022/04/04 06:36:21;;;;;;;15.77;9.95;;;;;;;4.15;71.30;101065.09;4985948;28;20035;-66
2022/04/04 06:38:46;;;;;;;19.08;10.88;;;;;;;4.20;70.49;101064.09;4966740;28;20057;-64
2022/04/04 06:41:12;;;;;;;22.08;10.93;;;;;;;4.37;70.26;101065.25;4983789;28;20034;-66
2022/04/04 06:43:38;;;;;;;20.08;10.90;;;;;;;4.39;69.45;101060.78;4983743;28;20486;-65
2022/04/04 06:46:03;;;;;;;16.25;10.65;;;;;;;4.43;70.65;101055.41;4983260;28;20078;-65
2022/04/04 06:48:30;;;;;;;16.92;9.85;;;;;;;4.48;69.39;101042.91;4982356;28;20498;-64
2022/04/04 06:50:56;;;;;;;17.98;10.85;;;;;;;4.47;70.00;101035.88;4982442;28;20034;-64
2022/04/04 06:53:21;;;;;;;16.80;10.85;;;;;;;4.52;69.94;101033.94;4982929;28;20129;-64
2022/04/04 06:55:48;;;;;;;20.77;11.57;;;;;;;4.50;69.69;101028.72;4965133;28;20101;-64
2022/04/04 06:58:13;;;;;;;19.63;10.32;;;;;;;4.52;70.22;101013.69;4983047;28;20563;-65
2022/04/04 07:00:39;;;;;;;19.85;11.27;;;;;;;4.47;69.81;101030.59;4981339;28;20042;-65
2022/04/04 07:03:05;;;;;;;17.70;10.70;;;;;;;4.57;69.96;101017.03;4982540;28;20046;-65
2022/04/04 07:05:31;;;;;;;20.60;11.30;;;;;;;4.70;70.17;101016.56;4982931;28;20096;-65
2022/04/04 07:07:56;;;;;;;18.67;10.43;;;;;;;4.70;69.35;101014.78;4982652;28;20050;-64
2022/04/04 07:10:22;;;;;;;21.05;11.52;;;;;;;4.72;69.08;101015.63;4982513;28;20046;-65
2022/04/04 07:12:47;;;;;;;19.00;10.57;;;;;;;4.78;69.09;101003.97;4982209;28;20035;-64
2022/04/04 07:15:13;;;;;;;15.90;9.15;;;;;;;4.77;68.46;100992.53;4982422;28;20046;-65
2022/04/04 07:17:40;;;;;;;15.55;10.80;;;;;;;4.90;68.69;100999.06;4981894;28;20130;-65
2022/04/04 07:20:06;;;;;;;17.95;10.25;;;;;;;4.94;68.47;100992.75;4982126;28;20042;-65
2022/04/04 07:22:36;;;;;;;17.85;10.75;;;;;;;5.14;68.19;100994.66;4962833;28;20129;-64
2022/04/04 07:25:03;;;;;;;16.92;10.20;;;;;;;5.26;68.00;100984.50;4962673;28;20136;-64
2022/04/04 07:27:29;;;;;;;18.15;10.25;;;;;;;5.36;67.23;100973.50;4964697;28;20043;-64
2022/04/04 07:29:54;;;;;;;14.93;10.07;;;;;;;5.45;66.40;100969.66;4981089;28;20069;-65
2022/04/04 07:32:20;;;;;;;18.30;9.88;;;;;;;5.49;67.18;100971.25;4979980;28;20069;-65
2022/04/04 07:34:45;;;;;;;16.73;9.10;;;;;;;5.58;65.88;100946.22;4978798;28;20093;-65
2022/04/04 07:37:10;;;;;;;14.70;8.88;;;;;;;5.57;66.45;100952.41;4976897;28;20550;-65
2022/04/04 07:39:36;;;;;;;16.58;8.52;;;;;;;5.48;66.69;100958.09;4979764;28;20038;-64
2022/04/04 07:42:01;;;;;;;14.40;8.65;;;;;;;5.54;66.68;100950.75;4980699;28;20042;-64
2022/04/04 07:44:27;;;;;;;14.68;9.13;;;;;;;5.60;66.69;100944.34;4980248;28;20043;-65
2022/04/04 07:46:52;;;;;;;15.75;8.57;;;;;;;5.66;67.17;100936.16;4981360;28;20050;-65
2022/04/04 07:49:18;;;;;;;14.65;8.15;;;;;;;5.74;66.41;100934.06;4981437;28;20038;-64
2022/04/04 07:51:43;;;;;;;12.07;8.15;;;;;;;5.67;66.14;100933.47;4981046;28;20041;-65
2022/04/04 07:54:08;;;;;;;11.63;8.57;;;;;;;5.77;66.25;100931.28;4981376;28;20038;-64
2022/04/04 07:56:34;;;;;;;19.58;8.50;;;;;;;5.91;66.62;100936.00;4979099;28;20501;-64
2022/04/04 07:58:59;;;;;;;16.10;9.32;;;;;;;5.85;65.75;100918.59;4947173;28;20053;-64
2022/04/04 08:01:25;;;;;;;14.73;8.93;;;;;;;5.93;66.60;100913.03;4961588;28;20041;-64
2022/04/04 08:03:50;;;;;;;17.75;9.50;;;;;;;5.90;67.38;100905.16;4978313;28;20045;-64
2022/04/04 08:06:16;;;;;;;13.43;9.00;;;;;;;5.76;66.64;100915.47;4963352;28;20086;-64
2022/04/04 08:08:41;;;;;;;13.90;9.05;;;;;;;5.94;67.07;100905.00;4980171;28;20038;-64
2022/04/04 08:11:08;;;;;;;17.40;9.32;;;;;;;5.96;66.73;100916.38;4979809;28;20050;-64
2022/04/04 08:13:33;;;;;;;15.30;8.52;;;;;;;5.92;66.17;100891.00;4980910;28;20213;-65
2022/04/04 08:16:00;;;;;;;15.93;8.75;;;;;;;5.96;66.61;100889.91;4981429;28;20038;-64
2022/04/04 08:18:26;;;;;;;13.52;8.40;;;;;;;6.01;67.25;100886.22;4981072;28;20064;-65
2022/04/04 08:20:54;;;;;;;16.70;10.02;;;;;;;6.09;68.41;100870.84;4975032;28;20038;-65
2022/04/04 08:23:19;;;;;;;17.90;9.40;;;;;;;6.08;68.36;100864.72;4961175;28;20443;-66
2022/04/04 08:25:45;;;;;;;22.23;9.57;;;;;;;5.94;68.33;100875.91;4961615;28;20042;-65
2022/04/04 08:28:10;;;;;;;13.02;8.18;;;;;;;6.09;67.58;100873.50;4959729;28;20054;-65
2022/04/04 08:30:36;;;;;;;15.77;7.70;;;;;;;6.03;68.09;100864.06;4964989;28;20038;-65
2022/04/04 08:33:01;;;;;;;13.98;8.93;;;;;;;6.11;68.08;100848.66;4977245;28;20693;-65
2022/04/04 08:35:27;;;;;;;19.27;10.27;;;;;;;6.05;69.30;100843.66;4979707;28;20037;-65
2022/04/04 08:37:52;;;;;;;19.48;10.07;;;;;;;5.90;69.55;100826.63;4979866;28;20056;-65
2022/04/04 08:40:18;;;;;;;18.55;9.55;;;;;;;5.81;69.71;100836.75;4979430;28;20448;-65
2022/04/04 08:42:45;;;;;;;17.00;10.23;;;;;;;5.82;69.11;100825.25;4976250;28;20414;-65
2022/04/04 08:45:11;;;;;;;15.93;9.65;;;;;;;5.95;68.95;100834.41;4978917;28;20042;-64
2022/04/04 08:47:38;;;;;;;15.85;9.85;;;;;;;6.09;69.10;100829.34;4961258;28;20045;-64
2022/04/04 08:50:04;;;;;;;17.10;9.57;;;;;;;6.11;67.56;100824.00;4978837;28;20046;-65
2022/04/04 08:52:29;;;;;;;17.58;10.57;;;;;;;6.18;68.08;100823.66;4979348;28;20062;-65
2022/04/04 08:54:55;;;;;;;16.33;9.95;;;;;;;6.07;67.50;100812.66;4962574;28;20038;-65
2022/04/04 08:57:20;;;;;;;19.77;9.43;;;;;;;6.01;67.25;100820.91;4973035;28;20710;-66
2022/04/04 08:59:46;;;;;;;19.42;10.55;;;;;;;6.22;67.79;100798.75;4963065;28;20046;-64
2022/04/04 09:02:12;;;;;;;19.02;10.48;;;;;;;6.14;67.57;100802.69;4960221;28;20058;-65
2022/04/04 09:04:38;;;;;;;13.60;8.85;;;;;;;6.11;66.48;100786.94;4960466;28;20465;-65
2022/04/04 09:07:08;;;;;;;19.63;10.55;;;;;;;6.12;67.36;100791.28;4960738;28;20832;-65
2022/04/04 09:09:45;;;;;;;14.88;10.02;;;;;;;6.08;67.08;100797.69;4960842;28;20038;-65
2022/04/04 09:12:13;;;;;;;17.77;10.75;;;;;;;6.22;66.68;100795.22;4960861;28;20058;-64
2022/04/04 09:14:52;;;;;;;22.40;11.40;;;;;;;6.23;66.47;100778.44;4960675;28;20389;-65
2022/04/04 09:17:20;;;;;;;16.00;10.27;;;;;;;6.26;66.26;100782.72;4961223;28;20050;-65
2022/04/04 09:19:46;;;;;;;17.00;10.60;;;;;;;6.29;66.37;100785.22;4961071;28;20129;-65
2022/04/04 09:22:14;;;;;;;18.52;11.43;;;;;;;6.26;66.54;100780.91;4977268;28;20042;-65
2022/04/04 09:24:43;;;;;;;18.85;10.93;;;;;;;6.20;67.24;100782.06;4979912;28;20126;-65
2022/04/04 09:27:11;;;;;;;17.88;11.05;;;;;;;6.13;67.14;100766.56;4980028;28;20119;-64
2022/04/04 09:29:41;;;;;;;24.13;12.25;;;;;;;6.14;68.31;100782.34;4980089;28;20042;-65
2022/04/04 09:32:11;;;;;;;20.73;11.43;;;;;;;6.01;69.62;100777.69;4979284;28;20062;-64
2022/04/04 09:35:04;;;;;;;23.13;12.30;;;;;;;6.02;70.21;100787.34;4979521;28;20050;-65
2022/04/04 09:37:31;;;;;;;18.65;11.75;;;;;;;5.87;71.17;100789.75;4979088;28;20089;-65
2022/04/04 09:40:17;;;;;;;19.13;11.05;;;;;;;5.69;72.23;100786.13;4978836;28;20042;-65
2022/04/04 09:42:55;;;;;;;19.75;12.15;;;;;;;5.67;72.88;100787.97;4981994;28;20100;-65
2022/04/04 09:45:24;;;;;;;19.67;11.63;;;;;;;5.68;74.01;100780.91;4974386;28;20058;-64
2022/04/04 09:48:09;;;;;;;27.20;12.82;;;;;;;5.61;75.29;100780.28;4946945;28;20440;-64
2022/04/04 09:50:39;;;;;;;18.10;12.98;;;;;;;5.49;75.65;100770.25;4963997;28;20070;-65
2022/04/04 09:53:22;;;;;;;26.75;13.68;;;;;;;5.31;76.58;100769.25;4966665;28;20047;-66
2022/04/04 09:55:56;;;;;;;27.45;13.73;;;;;;;5.32;78.20;100770.09;4966226;28;20045;-71
2022/04/04 09:58:23;;;;;;;32.03;14.50;;;;;;;5.36;78.67;100755.84;4967941;28;20046;-65
2022/04/04 10:00:49;;;;;;;24.27;14.90;;;;;;;5.26;78.18;100773.03;4975266;28;20074;-65
2022/04/04 10:03:16;;;;;;;20.77;14.88;;;;;;;5.28;79.19;100764.13;4969214;28;20126;-65
2022/04/04 10:05:49;;;;;;;22.80;14.63;;;;;;;5.34;79.41;100758.56;4964434;28;20062;-66
2022/04/04 10:08:17;;;;;;;24.48;14.00;;;;;;;5.34;79.31;100752.41;4975122;28;20040;-64
2022/04/04 10:10:44;;;;;;;26.67;16.08;;;;;;;5.50;79.13;100756.09;4978363;28;20070;-66
2022/04/04 10:13:12;;;;;;;24.02;14.15;;;;;;;5.49;79.09;100746.47;4979246;28;20035;-64
2022/04/04 10:15:38;;;;;;;29.02;15.73;;;;;;;5.52;79.68;100740.16;4980945;28;20260;-65
2022/04/04 10:18:04;;;;;;;24.75;14.77;;;;;;;5.57;79.37;100736.41;4975292;28;20566;-65
2022/04/04 10:20:30;;;;;;;25.92;15.57;;;;;;;5.61;79.17;100745.91;4976512;28;20042;-65
2022/04/04 10:22:57;;;;;;;27.23;16.05;;;;;;;5.54;79.03;100744.47;4977990;28;20030;-64
2022/04/04 10:25:26;;;;;;;39.50;16.55;;;;;;;5.52;79.95;100730.44;4977225;28;20077;-66
2022/04/04 10:27:52;;;;;;;24.33;15.02;;;;;;;5.59;80.20;100741.63;4969533;28;20042;-64
2022/04/04 10:30:29;;;;;;;23.27;15.48;;;;;;;5.50;78.81;100732.31;4977909;28;20443;-64
2022/04/04 10:32:54;;;;;;;25.88;15.98;;;;;;;5.49;80.13;100735.88;4947398;28;20927;-65
2022/04/04 10:35:25;;;;;;;28.10;16.73;;;;;;;5.50;80.51;100734.09;4963379;28;20081;-68
2022/04/04 10:37:51;;;;;;;28.30;16.70;;;;;;;5.55;81.38;100729.47;4979039;28;20129;-65
2022/04/04 10:40:21;;;;;;;26.25;16.38;;;;;;;5.56;81.24;100718.81;4963346;28;20432;-65
2022/04/04 10:43:13;;;;;;;29.55;18.25;;;;;;;5.60;81.08;100712.44;4981102;28;20053;-65
2022/04/04 10:45:57;;;;;;;30.58;16.80;;;;;;;5.60;80.82;100696.59;4982331;28;20108;-65
2022/04/04 10:48:46;;;;;;;25.90;15.80;;;;;;;5.65;80.89;100706.97;4982207;28;20057;-65
2022/04/04 10:51:29;;;;;;;33.05;16.77;;;;;;;5.71;82.16;100711.97;4982073;28;20530;-65
2022/04/04 10:53:57;;;;;;;;;;;;;;;5.61;82.52;100708.88;4977667;28;20089;-64
2022/04/04 10:56:24;;;;;;;29.35;16.23;;;;;;;5.48;82.16;100704.22;4981508;28;19926;-64
2022/04/04 10:58:52;;;;;;;27.05;17.15;;;;;;;5.52;82.60;100709.28;4981879;28;20046;-64
2022/04/04 11:01:20;;;;;;;27.48;16.38;;;;;;;5.66;81.62;100701.59;4981247;28;20593;-65
2022/04/04 11:03:48;;;;;;;29.23;16.40;;;;;;;5.60;81.45;100698.38;4981646;28;20043;-64
2022/04/04 11:09:05;;;;;;;27.48;16.15;;;;;;;5.54;83.05;100688.94;4982182;28;20114;-64
2022/04/04 11:11:49;;;;;;;30.38;15.57;;;;;;;5.46;83.63;100689.25;4963847;28;20050;-64
2022/04/04 11:14:42;;;;;;;26.67;15.10;;;;;;;5.46;83.23;100685.75;4980318;28;20526;-64
2022/04/04 11:20:02;;;;;;;26.00;15.30;;;;;;;5.33;83.75;100688.09;4981831;28;20715;-64
2022/04/04 11:22:30;;;;;;;25.40;14.93;;;;;;;5.41;83.79;100687.75;4981735;28;20072;-63
2022/04/04 11:25:07;;;;;;;30.80;15.50;;;;;;;5.42;83.03;100665.66;4980932;28;20070;-64
2022/04/04 11:27:50;;;;;;;25.55;14.57;;;;;;;5.39;83.79;100661.38;4982651;28;20053;-64
2022/04/04 11:30:21;;;;;;;24.45;16.17;;;;;;;5.41;83.15;100656.03;4982825;28;20035;-64
2022/04/04 11:32:49;;;;;;;28.95;15.77;;;;;;;5.34;84.25;100654.59;4982335;28;20100;-64